sensor_id;sensor_type;location;lat;lon;timestamp;P1;durP1;ratioP1;P2;durP2;ratioP2
5682;SDS011;2864;49.220;8.654;2023-07-20T00:01:15;2.53;;;2.10;;
5682;SDS011;2864;49.220;8.654;2023-07-20T00:03:40;3.30;;;2.37;;
5682;SDS011;2864;49.220;8.654;2023-07-20T00:06:06;3.47;;;2.40;;
5682;SDS011;2864;49.220;8.654;2023-07-20T00:08:32;3.63;;;2.40;;
5682;SDS011;2864;49.220;8.654;2023-07-20T00:10:58;3.43;;;2.40;;
5682;SDS011;2864;49.220;8.654;2023-07-20T00:13:23;4.63;;;2.43;;
5682;SDS011;2864;49.220;8.654;2023-07-20T00:15:49;4.37;;;2.37;;
5682;SDS011;2864;49.220;8.654;2023-07-20T00:18:15;4.97;;;2.30;;
5682;SDS011;2864;49.220;8.654;2023-07-20T00:20:41;4.00;;;2.33;;
5682;SDS011;2864;49.220;8.654;2023-07-20T00:23:07;2.97;;;2.47;;
5682;SDS011;2864;49.220;8.654;2023-07-20T00:25:32;2.93;;;2.30;;
5682;SDS011;2864;49.220;8.654;2023-07-20T00:27:58;5.27;;;2.30;;
5682;SDS011;2864;49.220;8.654;2023-07-20T00:30:24;3.10;;;2.23;;
5682;SDS011;2864;49.220;8.654;2023-07-20T00:32:49;5.57;;;2.53;;
5682;SDS011;2864;49.220;8.654;2023-07-20T00:35:15;4.67;;;2.40;;
5682;SDS011;2864;49.220;8.654;2023-07-20T00:37:40;3.67;;;2.33;;
5682;SDS011;2864;49.220;8.654;2023-07-20T00:40:06;2.93;;;2.13;;
5682;SDS011;2864;49.220;8.654;2023-07-20T00:42:34;3.73;;;2.53;;
5682;SDS011;2864;49.220;8.654;2023-07-20T00:45:00;3.33;;;1.97;;
5682;SDS011;2864;49.220;8.654;2023-07-20T00:47:26;3.77;;;2.37;;
5682;SDS011;2864;49.220;8.654;2023-07-20T00:49:52;3.80;;;2.40;;
5682;SDS011;2864;49.220;8.654;2023-07-20T00:52:19;4.10;;;2.57;;
5682;SDS011;2864;49.220;8.654;2023-07-20T00:54:47;5.43;;;2.27;;
5682;SDS011;2864;49.220;8.654;2023-07-20T00:57:14;4.07;;;2.40;;
5682;SDS011;2864;49.220;8.654;2023-07-20T00:59:40;4.50;;;2.67;;
5682;SDS011;2864;49.220;8.654;2023-07-20T01:02:06;3.90;;;2.37;;
5682;SDS011;2864;49.220;8.654;2023-07-20T01:04:32;4.77;;;2.67;;
5682;SDS011;2864;49.220;8.654;2023-07-20T01:09:44;2.80;;;2.20;;
5682;SDS011;2864;49.220;8.654;2023-07-20T01:12:22;3.63;;;2.50;;
5682;SDS011;2864;49.220;8.654;2023-07-20T01:14:55;2.63;;;2.37;;
5682;SDS011;2864;49.220;8.654;2023-07-20T01:17:21;3.77;;;2.50;;
5682;SDS011;2864;49.220;8.654;2023-07-20T01:19:47;4.33;;;2.70;;
5682;SDS011;2864;49.220;8.654;2023-07-20T01:22:21;4.50;;;2.70;;
5682;SDS011;2864;49.220;8.654;2023-07-20T01:33:38;4.47;;;2.40;;
5682;SDS011;2864;49.220;8.654;2023-07-20T01:36:05;3.17;;;2.50;;
5682;SDS011;2864;49.220;8.654;2023-07-20T01:38:31;4.43;;;2.50;;
5682;SDS011;2864;49.220;8.654;2023-07-20T01:40:57;5.20;;;2.43;;
5682;SDS011;2864;49.220;8.654;2023-07-20T01:43:23;4.70;;;2.50;;
5682;SDS011;2864;49.220;8.654;2023-07-20T01:45:48;5.10;;;2.63;;
5682;SDS011;2864;49.220;8.654;2023-07-20T01:48:14;7.40;;;3.33;;
5682;SDS011;2864;49.220;8.654;2023-07-20T01:50:39;3.37;;;2.40;;
5682;SDS011;2864;49.220;8.654;2023-07-20T01:53:05;4.30;;;2.97;;
5682;SDS011;2864;49.220;8.654;2023-07-20T01:55:30;3.97;;;2.60;;
5682;SDS011;2864;49.220;8.654;2023-07-20T01:57:56;2.47;;;2.20;;
5682;SDS011;2864;49.220;8.654;2023-07-20T02:00:22;3.60;;;2.60;;
5682;SDS011;2864;49.220;8.654;2023-07-20T02:02:50;4.10;;;2.73;;
5682;SDS011;2864;49.220;8.654;2023-07-20T02:05:16;4.10;;;2.60;;
5682;SDS011;2864;49.220;8.654;2023-07-20T02:07:42;3.63;;;2.63;;
5682;SDS011;2864;49.220;8.654;2023-07-20T02:10:08;5.37;;;2.90;;
5682;SDS011;2864;49.220;8.654;2023-07-20T02:12:34;4.53;;;2.90;;
5682;SDS011;2864;49.220;8.654;2023-07-20T02:14:59;3.63;;;2.60;;
5682;SDS011;2864;49.220;8.654;2023-07-20T02:17:25;4.30;;;2.50;;
5682;SDS011;2864;49.220;8.654;2023-07-20T02:19:54;5.80;;;2.83;;
5682;SDS011;2864;49.220;8.654;2023-07-20T02:22:21;3.27;;;2.80;;
5682;SDS011;2864;49.220;8.654;2023-07-20T02:24:46;3.30;;;2.77;;
5682;SDS011;2864;49.220;8.654;2023-07-20T02:27:12;3.03;;;2.50;;
5682;SDS011;2864;49.220;8.654;2023-07-20T02:29:38;3.77;;;2.93;;
5682;SDS011;2864;49.220;8.654;2023-07-20T02:32:05;4.47;;;2.90;;
5682;SDS011;2864;49.220;8.654;2023-07-20T02:34:31;3.13;;;2.57;;
5682;SDS011;2864;49.220;8.654;2023-07-20T02:36:57;3.77;;;2.57;;
5682;SDS011;2864;49.220;8.654;2023-07-20T02:39:24;5.63;;;3.10;;
5682;SDS011;2864;49.220;8.654;2023-07-20T02:41:49;4.07;;;2.80;;
5682;SDS011;2864;49.220;8.654;2023-07-20T02:44:15;4.20;;;2.53;;
5682;SDS011;2864;49.220;8.654;2023-07-20T02:46:41;7.90;;;2.87;;
5682;SDS011;2864;49.220;8.654;2023-07-20T02:49:06;2.93;;;2.60;;
5682;SDS011;2864;49.220;8.654;2023-07-20T02:51:32;3.20;;;2.70;;
5682;SDS011;2864;49.220;8.654;2023-07-20T02:53:57;5.77;;;2.60;;
5682;SDS011;2864;49.220;8.654;2023-07-20T02:56:23;8.10;;;2.63;;
5682;SDS011;2864;49.220;8.654;2023-07-20T02:58:49;5.03;;;2.60;;
5682;SDS011;2864;49.220;8.654;2023-07-20T03:01:14;2.97;;;2.67;;
5682;SDS011;2864;49.220;8.654;2023-07-20T03:03:40;3.80;;;2.83;;
5682;SDS011;2864;49.220;8.654;2023-07-20T03:06:11;6.10;;;2.90;;
5682;SDS011;2864;49.220;8.654;2023-07-20T03:08:38;3.57;;;2.67;;
5682;SDS011;2864;49.220;8.654;2023-07-20T03:11:03;3.33;;;2.53;;
5682;SDS011;2864;49.220;8.654;2023-07-20T03:13:29;3.20;;;2.50;;
5682;SDS011;2864;49.220;8.654;2023-07-20T03:15:55;3.30;;;2.30;;
5682;SDS011;2864;49.220;8.654;2023-07-20T03:18:20;4.33;;;2.40;;
5682;SDS011;2864;49.220;8.654;2023-07-20T03:20:46;5.47;;;2.73;;
5682;SDS011;2864;49.220;8.654;2023-07-20T03:23:11;5.07;;;2.70;;
5682;SDS011;2864;49.220;8.654;2023-07-20T03:25:37;4.43;;;2.80;;
5682;SDS011;2864;49.220;8.654;2023-07-20T03:28:03;4.10;;;3.00;;
5682;SDS011;2864;49.220;8.654;2023-07-20T03:30:29;5.87;;;2.90;;
5682;SDS011;2864;49.220;8.654;2023-07-20T03:32:54;4.50;;;2.83;;
5682;SDS011;2864;49.220;8.654;2023-07-20T03:35:20;6.40;;;3.20;;
5682;SDS011;2864;49.220;8.654;2023-07-20T03:37:45;3.93;;;2.97;;
5682;SDS011;2864;49.220;8.654;2023-07-20T03:40:11;6.23;;;3.23;;
5682;SDS011;2864;49.220;8.654;2023-07-20T03:42:37;5.37;;;3.20;;
5682;SDS011;2864;49.220;8.654;2023-07-20T03:45:03;4.93;;;3.87;;
5682;SDS011;2864;49.220;8.654;2023-07-20T03:47:29;4.03;;;2.87;;
5682;SDS011;2864;49.220;8.654;2023-07-20T03:49:55;4.43;;;3.20;;
5682;SDS011;2864;49.220;8.654;2023-07-20T03:52:20;8.63;;;2.70;;
5682;SDS011;2864;49.220;8.654;2023-07-20T03:54:46;6.00;;;3.00;;
5682;SDS011;2864;49.220;8.654;2023-07-20T03:57:11;4.77;;;3.13;;
5682;SDS011;2864;49.220;8.654;2023-07-20T03:59:37;10.63;;;2.87;;
5682;SDS011;2864;49.220;8.654;2023-07-20T04:02:04;6.90;;;2.83;;
5682;SDS011;2864;49.220;8.654;2023-07-20T04:04:30;4.90;;;2.80;;
5682;SDS011;2864;49.220;8.654;2023-07-20T04:06:56;4.50;;;2.97;;
5682;SDS011;2864;49.220;8.654;2023-07-20T04:09:21;5.27;;;3.30;;
5682;SDS011;2864;49.220;8.654;2023-07-20T04:11:47;4.10;;;3.10;;
5682;SDS011;2864;49.220;8.654;2023-07-20T04:14:13;5.03;;;4.13;;
5682;SDS011;2864;49.220;8.654;2023-07-20T04:16:38;5.37;;;3.47;;
5682;SDS011;2864;49.220;8.654;2023-07-20T04:19:04;6.97;;;3.57;;
5682;SDS011;2864;49.220;8.654;2023-07-20T04:21:29;5.10;;;3.00;;
5682;SDS011;2864;49.220;8.654;2023-07-20T04:23:55;4.77;;;3.30;;
5682;SDS011;2864;49.220;8.654;2023-07-20T04:26:21;4.57;;;3.00;;
5682;SDS011;2864;49.220;8.654;2023-07-20T04:28:47;8.43;;;4.40;;
5682;SDS011;2864;49.220;8.654;2023-07-20T04:31:14;5.23;;;3.10;;
5682;SDS011;2864;49.220;8.654;2023-07-20T04:33:40;5.63;;;2.83;;
5682;SDS011;2864;49.220;8.654;2023-07-20T04:36:06;4.90;;;2.80;;
5682;SDS011;2864;49.220;8.654;2023-07-20T04:38:32;4.23;;;3.13;;
5682;SDS011;2864;49.220;8.654;2023-07-20T04:40:58;4.97;;;2.63;;
5682;SDS011;2864;49.220;8.654;2023-07-20T04:43:23;9.63;;;3.03;;
5682;SDS011;2864;49.220;8.654;2023-07-20T04:45:49;9.07;;;3.07;;
5682;SDS011;2864;49.220;8.654;2023-07-20T04:48:15;5.20;;;3.23;;
5682;SDS011;2864;49.220;8.654;2023-07-20T04:50:42;4.60;;;2.87;;
5682;SDS011;2864;49.220;8.654;2023-07-20T04:53:09;5.10;;;3.20;;
5682;SDS011;2864;49.220;8.654;2023-07-20T04:55:36;4.23;;;2.93;;
5682;SDS011;2864;49.220;8.654;2023-07-20T04:58:03;7.03;;;3.10;;
5682;SDS011;2864;49.220;8.654;2023-07-20T05:00:29;4.20;;;2.97;;
5682;SDS011;2864;49.220;8.654;2023-07-20T05:02:55;6.60;;;3.10;;
5682;SDS011;2864;49.220;8.654;2023-07-20T05:05:21;10.47;;;3.37;;
5682;SDS011;2864;49.220;8.654;2023-07-20T05:07:47;5.20;;;2.80;;
5682;SDS011;2864;49.220;8.654;2023-07-20T05:10:13;4.23;;;3.00;;
5682;SDS011;2864;49.220;8.654;2023-07-20T05:12:38;5.60;;;3.20;;
5682;SDS011;2864;49.220;8.654;2023-07-20T05:15:04;4.23;;;3.20;;
5682;SDS011;2864;49.220;8.654;2023-07-20T05:17:30;4.17;;;2.90;;
5682;SDS011;2864;49.220;8.654;2023-07-20T05:19:55;6.83;;;3.23;;
5682;SDS011;2864;49.220;8.654;2023-07-20T05:22:21;10.57;;;3.23;;
5682;SDS011;2864;49.220;8.654;2023-07-20T05:24:46;7.97;;;2.97;;
5682;SDS011;2864;49.220;8.654;2023-07-20T05:27:12;6.60;;;3.43;;
5682;SDS011;2864;49.220;8.654;2023-07-20T05:29:37;6.43;;;3.40;;
5682;SDS011;2864;49.220;8.654;2023-07-20T05:32:08;4.73;;;3.43;;
5682;SDS011;2864;49.220;8.654;2023-07-20T05:34:34;7.53;;;3.23;;
5682;SDS011;2864;49.220;8.654;2023-07-20T05:37:00;5.67;;;3.30;;
5682;SDS011;2864;49.220;8.654;2023-07-20T05:39:25;6.67;;;3.20;;
5682;SDS011;2864;49.220;8.654;2023-07-20T05:41:51;5.47;;;3.40;;
5682;SDS011;2864;49.220;8.654;2023-07-20T05:44:16;6.33;;;3.53;;
5682;SDS011;2864;49.220;8.654;2023-07-20T05:46:42;7.60;;;3.50;;
5682;SDS011;2864;49.220;8.654;2023-07-20T05:49:07;9.43;;;3.30;;
5682;SDS011;2864;49.220;8.654;2023-07-20T05:51:33;5.40;;;3.30;;
5682;SDS011;2864;49.220;8.654;2023-07-20T05:53:59;5.53;;;3.30;;
5682;SDS011;2864;49.220;8.654;2023-07-20T05:56:24;5.67;;;3.17;;
5682;SDS011;2864;49.220;8.654;2023-07-20T05:58:50;3.97;;;3.00;;
5682;SDS011;2864;49.220;8.654;2023-07-20T06:01:15;6.13;;;3.03;;
5682;SDS011;2864;49.220;8.654;2023-07-20T06:03:43;3.80;;;2.90;;
5682;SDS011;2864;49.220;8.654;2023-07-20T06:06:08;4.23;;;3.10;;
5682;SDS011;2864;49.220;8.654;2023-07-20T06:08:36;7.93;;;3.87;;
5682;SDS011;2864;49.220;8.654;2023-07-20T06:11:02;5.37;;;3.30;;
5682;SDS011;2864;49.220;8.654;2023-07-20T06:13:28;5.57;;;2.90;;
5682;SDS011;2864;49.220;8.654;2023-07-20T06:15:53;7.20;;;2.80;;
5682;SDS011;2864;49.220;8.654;2023-07-20T06:18:20;6.30;;;2.67;;
5682;SDS011;2864;49.220;8.654;2023-07-20T06:20:48;3.03;;;2.40;;
5682;SDS011;2864;49.220;8.654;2023-07-20T06:23:15;7.50;;;3.07;;
5682;SDS011;2864;49.220;8.654;2023-07-20T06:25:40;7.30;;;3.03;;
5682;SDS011;2864;49.220;8.654;2023-07-20T06:28:06;7.20;;;3.07;;
5682;SDS011;2864;49.220;8.654;2023-07-20T06:30:33;3.43;;;2.67;;
5682;SDS011;2864;49.220;8.654;2023-07-20T06:32:59;5.60;;;2.87;;
5682;SDS011;2864;49.220;8.654;2023-07-20T06:35:25;7.53;;;3.17;;
5682;SDS011;2864;49.220;8.654;2023-07-20T06:37:51;4.00;;;2.80;;
5682;SDS011;2864;49.220;8.654;2023-07-20T06:40:16;6.67;;;2.70;;
5682;SDS011;2864;49.220;8.654;2023-07-20T06:42:42;9.80;;;3.00;;
5682;SDS011;2864;49.220;8.654;2023-07-20T06:45:08;7.30;;;2.80;;
5682;SDS011;2864;49.220;8.654;2023-07-20T06:47:34;5.03;;;2.70;;
5682;SDS011;2864;49.220;8.654;2023-07-20T06:50:00;6.23;;;2.80;;
5682;SDS011;2864;49.220;8.654;2023-07-20T06:52:25;7.70;;;3.10;;
5682;SDS011;2864;49.220;8.654;2023-07-20T06:54:51;5.20;;;3.03;;
5682;SDS011;2864;49.220;8.654;2023-07-20T06:57:17;5.83;;;2.83;;
5682;SDS011;2864;49.220;8.654;2023-07-20T06:59:42;5.77;;;3.00;;
5682;SDS011;2864;49.220;8.654;2023-07-20T07:02:08;5.00;;;2.90;;
5682;SDS011;2864;49.220;8.654;2023-07-20T07:04:33;4.03;;;2.47;;
5682;SDS011;2864;49.220;8.654;2023-07-20T07:06:59;3.47;;;2.60;;
5682;SDS011;2864;49.220;8.654;2023-07-20T07:09:25;5.23;;;3.10;;
5682;SDS011;2864;49.220;8.654;2023-07-20T07:11:50;4.50;;;2.63;;
5682;SDS011;2864;49.220;8.654;2023-07-20T07:14:18;4.87;;;3.23;;
5682;SDS011;2864;49.220;8.654;2023-07-20T07:16:45;4.83;;;3.30;;
5682;SDS011;2864;49.220;8.654;2023-07-20T07:19:10;4.33;;;3.17;;
5682;SDS011;2864;49.220;8.654;2023-07-20T07:21:36;5.53;;;3.00;;
5682;SDS011;2864;49.220;8.654;2023-07-20T07:24:01;6.87;;;3.00;;
5682;SDS011;2864;49.220;8.654;2023-07-20T07:26:27;6.03;;;3.20;;
5682;SDS011;2864;49.220;8.654;2023-07-20T07:28:52;5.87;;;2.97;;
5682;SDS011;2864;49.220;8.654;2023-07-20T07:31:18;5.00;;;3.10;;
5682;SDS011;2864;49.220;8.654;2023-07-20T07:33:43;7.43;;;3.20;;
5682;SDS011;2864;49.220;8.654;2023-07-20T07:36:09;4.93;;;3.17;;
5682;SDS011;2864;49.220;8.654;2023-07-20T07:38:35;6.07;;;2.80;;
5682;SDS011;2864;49.220;8.654;2023-07-20T07:41:00;8.57;;;3.30;;
5682;SDS011;2864;49.220;8.654;2023-07-20T07:43:26;4.20;;;2.77;;
5682;SDS011;2864;49.220;8.654;2023-07-20T07:45:53;5.77;;;2.97;;
5682;SDS011;2864;49.220;8.654;2023-07-20T07:48:19;4.07;;;2.90;;
5682;SDS011;2864;49.220;8.654;2023-07-20T07:50:46;4.38;;;2.90;;
5682;SDS011;2864;49.220;8.654;2023-07-20T07:53:11;3.60;;;2.77;;
5682;SDS011;2864;49.220;8.654;2023-07-20T07:55:37;2.53;;;2.00;;
5682;SDS011;2864;49.220;8.654;2023-07-20T07:58:03;3.20;;;2.03;;
5682;SDS011;2864;49.220;8.654;2023-07-20T08:00:28;5.20;;;2.17;;
5682;SDS011;2864;49.220;8.654;2023-07-20T08:02:54;4.77;;;2.17;;
5682;SDS011;2864;49.220;8.654;2023-07-20T08:05:20;3.47;;;2.20;;
5682;SDS011;2864;49.220;8.654;2023-07-20T08:07:45;5.87;;;3.90;;
5682;SDS011;2864;49.220;8.654;2023-07-20T08:10:11;5.03;;;2.20;;
5682;SDS011;2864;49.220;8.654;2023-07-20T08:12:36;4.70;;;2.03;;
5682;SDS011;2864;49.220;8.654;2023-07-20T08:15:02;5.07;;;2.40;;
5682;SDS011;2864;49.220;8.654;2023-07-20T08:17:29;3.63;;;2.30;;
5682;SDS011;2864;49.220;8.654;2023-07-20T08:19:54;2.60;;;1.90;;
5682;SDS011;2864;49.220;8.654;2023-07-20T08:22:20;1.97;;;1.67;;
5682;SDS011;2864;49.220;8.654;2023-07-20T08:24:45;2.87;;;2.00;;
5682;SDS011;2864;49.220;8.654;2023-07-20T08:27:12;2.77;;;1.90;;
5682;SDS011;2864;49.220;8.654;2023-07-20T08:29:38;5.67;;;2.00;;
5682;SDS011;2864;49.220;8.654;2023-07-20T08:32:04;3.57;;;2.10;;
5682;SDS011;2864;49.220;8.654;2023-07-20T08:34:31;2.67;;;1.80;;
5682;SDS011;2864;49.220;8.654;2023-07-20T08:36:57;3.30;;;2.47;;
5682;SDS011;2864;49.220;8.654;2023-07-20T08:39:23;3.17;;;2.27;;
5682;SDS011;2864;49.220;8.654;2023-07-20T08:41:49;4.27;;;2.30;;
5682;SDS011;2864;49.220;8.654;2023-07-20T08:44:17;4.13;;;2.27;;
5682;SDS011;2864;49.220;8.654;2023-07-20T08:46:42;2.73;;;2.00;;
5682;SDS011;2864;49.220;8.654;2023-07-20T08:49:09;6.50;;;2.50;;
5682;SDS011;2864;49.220;8.654;2023-07-20T08:51:36;4.77;;;2.27;;
5682;SDS011;2864;49.220;8.654;2023-07-20T08:54:03;2.50;;;1.97;;
5682;SDS011;2864;49.220;8.654;2023-07-20T08:56:29;3.50;;;2.40;;
5682;SDS011;2864;49.220;8.654;2023-07-20T08:58:58;3.60;;;2.20;;
5682;SDS011;2864;49.220;8.654;2023-07-20T09:01:25;3.07;;;1.97;;
5682;SDS011;2864;49.220;8.654;2023-07-20T09:03:53;6.00;;;2.43;;
5682;SDS011;2864;49.220;8.654;2023-07-20T09:06:18;6.57;;;2.47;;
5682;SDS011;2864;49.220;8.654;2023-07-20T09:08:44;4.87;;;2.30;;
5682;SDS011;2864;49.220;8.654;2023-07-20T09:11:11;3.47;;;2.17;;
5682;SDS011;2864;49.220;8.654;2023-07-20T09:13:38;2.40;;;2.00;;
5682;SDS011;2864;49.220;8.654;2023-07-20T09:16:04;2.97;;;1.93;;
5682;SDS011;2864;49.220;8.654;2023-07-20T09:18:31;3.90;;;2.07;;
5682;SDS011;2864;49.220;8.654;2023-07-20T09:20:57;3.57;;;2.20;;
5682;SDS011;2864;49.220;8.654;2023-07-20T09:26:00;7.10;;;2.40;;
5682;SDS011;2864;49.220;8.654;2023-07-20T09:28:37;4.53;;;2.30;;
5682;SDS011;2864;49.220;8.654;2023-07-20T09:31:15;4.90;;;1.97;;
5682;SDS011;2864;49.220;8.654;2023-07-20T09:33:42;4.30;;;2.10;;
5682;SDS011;2864;49.220;8.654;2023-07-20T09:36:09;4.53;;;1.93;;
5682;SDS011;2864;49.220;8.654;2023-07-20T09:38:36;4.60;;;2.37;;
5682;SDS011;2864;49.220;8.654;2023-07-20T09:41:03;4.03;;;2.10;;
5682;SDS011;2864;49.220;8.654;2023-07-20T09:43:31;4.73;;;2.10;;
5682;SDS011;2864;49.220;8.654;2023-07-20T09:45:58;3.87;;;2.00;;
5682;SDS011;2864;49.220;8.654;2023-07-20T09:48:25;2.63;;;1.87;;
5682;SDS011;2864;49.220;8.654;2023-07-20T09:51:01;3.77;;;2.20;;
5682;SDS011;2864;49.220;8.654;2023-07-20T09:53:28;4.83;;;2.00;;
5682;SDS011;2864;49.220;8.654;2023-07-20T09:55:54;4.63;;;2.00;;
5682;SDS011;2864;49.220;8.654;2023-07-20T09:58:21;3.07;;;1.93;;
5682;SDS011;2864;49.220;8.654;2023-07-20T10:00:47;2.83;;;2.20;;
5682;SDS011;2864;49.220;8.654;2023-07-20T10:03:18;4.67;;;2.30;;
5682;SDS011;2864;49.220;8.654;2023-07-20T10:05:48;3.80;;;1.90;;
5682;SDS011;2864;49.220;8.654;2023-07-20T10:08:19;3.60;;;2.17;;
5682;SDS011;2864;49.220;8.654;2023-07-20T10:10:48;4.00;;;1.93;;
5682;SDS011;2864;49.220;8.654;2023-07-20T10:13:17;3.23;;;2.00;;
5682;SDS011;2864;49.220;8.654;2023-07-20T10:15:46;2.43;;;1.70;;
5682;SDS011;2864;49.220;8.654;2023-07-20T10:21:26;3.43;;;2.10;;
5682;SDS011;2864;49.220;8.654;2023-07-20T10:23:54;4.43;;;2.40;;
5682;SDS011;2864;49.220;8.654;2023-07-20T10:26:22;2.67;;;1.87;;
5682;SDS011;2864;49.220;8.654;2023-07-20T10:28:48;4.20;;;1.93;;
5682;SDS011;2864;49.220;8.654;2023-07-20T10:31:14;2.90;;;1.90;;
5682;SDS011;2864;49.220;8.654;2023-07-20T10:33:40;2.40;;;1.80;;
5682;SDS011;2864;49.220;8.654;2023-07-20T10:36:06;3.10;;;2.33;;
5682;SDS011;2864;49.220;8.654;2023-07-20T10:38:42;3.33;;;1.90;;
5682;SDS011;2864;49.220;8.654;2023-07-20T10:41:31;4.37;;;2.40;;
5682;SDS011;2864;49.220;8.654;2023-07-20T10:44:02;2.53;;;2.00;;
5682;SDS011;2864;49.220;8.654;2023-07-20T10:49:07;2.60;;;1.80;;
5682;SDS011;2864;49.220;8.654;2023-07-20T10:51:44;3.63;;;1.90;;
5682;SDS011;2864;49.220;8.654;2023-07-20T10:56:48;3.10;;;1.98;;
5682;SDS011;2864;49.220;8.654;2023-07-20T10:59:20;2.27;;;1.50;;
5682;SDS011;2864;49.220;8.654;2023-07-20T11:02:06;4.00;;;1.80;;
5682;SDS011;2864;49.220;8.654;2023-07-20T11:04:39;2.53;;;1.90;;
5682;SDS011;2864;49.220;8.654;2023-07-20T11:07:08;3.35;;;2.00;;
5682;SDS011;2864;49.220;8.654;2023-07-20T11:09:35;3.60;;;1.80;;
5682;SDS011;2864;49.220;8.654;2023-07-20T11:12:11;2.15;;;1.70;;
5682;SDS011;2864;49.220;8.654;2023-07-20T11:14:55;4.90;;;2.00;;
5682;SDS011;2864;49.220;8.654;2023-07-20T11:17:28;3.10;;;2.20;;
5682;SDS011;2864;49.220;8.654;2023-07-20T11:19:57;3.90;;;1.90;;
5682;SDS011;2864;49.220;8.654;2023-07-20T11:22:25;3.53;;;2.08;;
5682;SDS011;2864;49.220;8.654;2023-07-20T11:24:54;2.83;;;1.67;;
5682;SDS011;2864;49.220;8.654;2023-07-20T11:27:20;3.38;;;1.75;;
5682;SDS011;2864;49.220;8.654;2023-07-20T11:29:47;4.25;;;2.08;;
5682;SDS011;2864;49.220;8.654;2023-07-20T11:32:19;4.28;;;1.92;;
5682;SDS011;2864;49.220;8.654;2023-07-20T11:34:47;6.60;;;1.98;;
5682;SDS011;2864;49.220;8.654;2023-07-20T11:37:13;6.18;;;2.38;;
5682;SDS011;2864;49.220;8.654;2023-07-20T11:39:38;3.25;;;1.63;;
5682;SDS011;2864;49.220;8.654;2023-07-20T11:42:05;3.03;;;1.70;;
5682;SDS011;2864;49.220;8.654;2023-07-20T11:44:31;3.25;;;1.70;;
5682;SDS011;2864;49.220;8.654;2023-07-20T11:49:36;3.25;;;1.80;;
5682;SDS011;2864;49.220;8.654;2023-07-20T11:52:06;3.15;;;2.10;;
5682;SDS011;2864;49.220;8.654;2023-07-20T11:54:34;1.73;;;1.63;;
5682;SDS011;2864;49.220;8.654;2023-07-20T11:57:00;4.07;;;1.90;;
5682;SDS011;2864;49.220;8.654;2023-07-20T11:59:26;2.30;;;1.67;;
5682;SDS011;2864;49.220;8.654;2023-07-20T12:01:52;3.25;;;1.80;;
5682;SDS011;2864;49.220;8.654;2023-07-20T12:04:18;2.80;;;1.80;;
5682;SDS011;2864;49.220;8.654;2023-07-20T12:06:44;5.93;;;2.10;;
5682;SDS011;2864;49.220;8.654;2023-07-20T12:09:13;3.38;;;1.88;;
5682;SDS011;2864;49.220;8.654;2023-07-20T12:11:42;3.10;;;1.75;;
5682;SDS011;2864;49.220;8.654;2023-07-20T12:14:09;2.78;;;1.90;;
5682;SDS011;2864;49.220;8.654;2023-07-20T12:16:35;3.53;;;2.22;;
5682;SDS011;2864;49.220;8.654;2023-07-20T12:19:05;2.13;;;1.60;;
5682;SDS011;2864;49.220;8.654;2023-07-20T12:21:32;3.22;;;1.80;;
5682;SDS011;2864;49.220;8.654;2023-07-20T12:24:00;2.75;;;1.80;;
5682;SDS011;2864;49.220;8.654;2023-07-20T12:26:26;3.15;;;1.65;;
5682;SDS011;2864;49.220;8.654;2023-07-20T12:28:54;3.25;;;1.90;;
5682;SDS011;2864;49.220;8.654;2023-07-20T12:31:20;3.92;;;2.05;;
5682;SDS011;2864;49.220;8.654;2023-07-20T12:33:47;3.83;;;1.77;;
5682;SDS011;2864;49.220;8.654;2023-07-20T12:36:13;3.25;;;2.00;;
5682;SDS011;2864;49.220;8.654;2023-07-20T12:38:39;2.80;;;1.73;;
5682;SDS011;2864;49.220;8.654;2023-07-20T12:41:06;2.47;;;1.70;;
5682;SDS011;2864;49.220;8.654;2023-07-20T12:43:32;4.55;;;1.85;;
5682;SDS011;2864;49.220;8.654;2023-07-20T12:45:58;2.53;;;1.70;;
5682;SDS011;2864;49.220;8.654;2023-07-20T12:48:24;2.70;;;1.70;;
5682;SDS011;2864;49.220;8.654;2023-07-20T12:50:49;2.70;;;1.58;;
5682;SDS011;2864;49.220;8.654;2023-07-20T12:53:15;2.10;;;1.70;;
5682;SDS011;2864;49.220;8.654;2023-07-20T12:55:41;2.88;;;1.65;;
5682;SDS011;2864;49.220;8.654;2023-07-20T12:58:07;4.90;;;1.83;;
5682;SDS011;2864;49.220;8.654;2023-07-20T13:00:33;2.58;;;1.73;;
5682;SDS011;2864;49.220;8.654;2023-07-20T13:02:59;1.80;;;1.48;;
5682;SDS011;2864;49.220;8.654;2023-07-20T13:05:25;2.65;;;1.70;;
5682;SDS011;2864;49.220;8.654;2023-07-20T13:07:50;2.47;;;1.88;;
5682;SDS011;2864;49.220;8.654;2023-07-20T13:10:16;2.25;;;1.70;;
5682;SDS011;2864;49.220;8.654;2023-07-20T13:12:42;3.25;;;1.70;;
5682;SDS011;2864;49.220;8.654;2023-07-20T13:15:09;3.08;;;1.60;;
5682;SDS011;2864;49.220;8.654;2023-07-20T13:17:35;2.10;;;1.75;;
5682;SDS011;2864;49.220;8.654;2023-07-20T13:20:04;4.18;;;1.63;;
5682;SDS011;2864;49.220;8.654;2023-07-20T13:22:31;3.00;;;2.00;;
5682;SDS011;2864;49.220;8.654;2023-07-20T13:24:57;2.90;;;1.60;;
5682;SDS011;2864;49.220;8.654;2023-07-20T13:27:22;2.45;;;1.73;;
5682;SDS011;2864;49.220;8.654;2023-07-20T13:29:48;2.80;;;1.60;;
5682;SDS011;2864;49.220;8.654;2023-07-20T13:32:13;1.52;;;1.33;;
5682;SDS011;2864;49.220;8.654;2023-07-20T13:34:40;4.25;;;1.80;;
5682;SDS011;2864;49.220;8.654;2023-07-20T13:37:06;3.85;;;1.73;;
5682;SDS011;2864;49.220;8.654;2023-07-20T13:39:31;2.88;;;1.70;;
5682;SDS011;2864;49.220;8.654;2023-07-20T13:41:57;1.63;;;1.52;;
5682;SDS011;2864;49.220;8.654;2023-07-20T13:44:22;2.90;;;1.55;;
5682;SDS011;2864;49.220;8.654;2023-07-20T13:46:48;2.97;;;1.60;;
5682;SDS011;2864;49.220;8.654;2023-07-20T13:49:14;2.10;;;1.52;;
5682;SDS011;2864;49.220;8.654;2023-07-20T13:51:43;2.72;;;1.58;;
5682;SDS011;2864;49.220;8.654;2023-07-20T13:54:09;2.70;;;1.65;;
5682;SDS011;2864;49.220;8.654;2023-07-20T13:56:35;3.45;;;1.73;;
5682;SDS011;2864;49.220;8.654;2023-07-20T13:59:00;2.83;;;1.70;;
5682;SDS011;2864;49.220;8.654;2023-07-20T14:01:26;3.28;;;1.60;;
5682;SDS011;2864;49.220;8.654;2023-07-20T14:03:53;2.58;;;1.70;;
5682;SDS011;2864;49.220;8.654;2023-07-20T14:06:19;2.20;;;1.42;;
5682;SDS011;2864;49.220;8.654;2023-07-20T14:08:45;1.60;;;1.50;;
5682;SDS011;2864;49.220;8.654;2023-07-20T14:11:12;2.83;;;1.58;;
5682;SDS011;2864;49.220;8.654;2023-07-20T14:13:37;2.08;;;1.50;;
5682;SDS011;2864;49.220;8.654;2023-07-20T14:16:03;3.83;;;1.95;;
5682;SDS011;2864;49.220;8.654;2023-07-20T14:18:29;2.30;;;1.55;;
5682;SDS011;2864;49.220;8.654;2023-07-20T14:20:55;3.45;;;1.92;;
5682;SDS011;2864;49.220;8.654;2023-07-20T14:23:21;4.03;;;1.80;;
5682;SDS011;2864;49.220;8.654;2023-07-20T14:25:47;2.67;;;1.33;;
5682;SDS011;2864;49.220;8.654;2023-07-20T14:28:13;3.67;;;1.70;;
5682;SDS011;2864;49.220;8.654;2023-07-20T14:30:38;1.73;;;1.63;;
5682;SDS011;2864;49.220;8.654;2023-07-20T14:33:05;1.67;;;1.58;;
5682;SDS011;2864;49.220;8.654;2023-07-20T14:35:30;3.05;;;1.60;;
5682;SDS011;2864;49.220;8.654;2023-07-20T14:37:56;3.28;;;1.95;;
5682;SDS011;2864;49.220;8.654;2023-07-20T14:40:21;3.75;;;1.60;;
5682;SDS011;2864;49.220;8.654;2023-07-20T14:42:47;4.05;;;1.60;;
5682;SDS011;2864;49.220;8.654;2023-07-20T14:45:13;2.22;;;1.73;;
5682;SDS011;2864;49.220;8.654;2023-07-20T14:47:38;1.73;;;1.50;;
5682;SDS011;2864;49.220;8.654;2023-07-20T14:50:05;1.58;;;1.45;;
5682;SDS011;2864;49.220;8.654;2023-07-20T14:52:31;4.30;;;1.60;;
5682;SDS011;2864;49.220;8.654;2023-07-20T14:54:56;2.22;;;1.50;;
5682;SDS011;2864;49.220;8.654;2023-07-20T14:57:22;1.70;;;1.48;;
5682;SDS011;2864;49.220;8.654;2023-07-20T14:59:51;2.95;;;1.75;;
5682;SDS011;2864;49.220;8.654;2023-07-20T15:02:18;2.00;;;1.70;;
5682;SDS011;2864;49.220;8.654;2023-07-20T15:04:47;4.82;;;1.60;;
5682;SDS011;2864;49.220;8.654;2023-07-20T15:07:16;3.30;;;1.63;;
5682;SDS011;2864;49.220;8.654;2023-07-20T15:09:46;2.00;;;1.73;;
5682;SDS011;2864;49.220;8.654;2023-07-20T15:12:12;4.30;;;1.45;;
5682;SDS011;2864;49.220;8.654;2023-07-20T15:14:41;2.30;;;1.80;;
5682;SDS011;2864;49.220;8.654;2023-07-20T15:17:08;1.75;;;1.60;;
5682;SDS011;2864;49.220;8.654;2023-07-20T15:19:34;2.33;;;1.60;;
5682;SDS011;2864;49.220;8.654;2023-07-20T15:22:00;2.10;;;1.77;;
5682;SDS011;2864;49.220;8.654;2023-07-20T15:24:27;2.95;;;1.55;;
5682;SDS011;2864;49.220;8.654;2023-07-20T15:26:53;1.60;;;1.50;;
5682;SDS011;2864;49.220;8.654;2023-07-20T15:29:19;2.63;;;1.50;;
5682;SDS011;2864;49.220;8.654;2023-07-20T15:31:45;1.80;;;1.60;;
5682;SDS011;2864;49.220;8.654;2023-07-20T15:34:11;3.72;;;1.70;;
5682;SDS011;2864;49.220;8.654;2023-07-20T15:36:39;2.17;;;1.90;;